sensor_id;sensor_type;location;lat;lon;timestamp;P1;durP1;ratioP1;P2;durP2;ratioP2
47329;SDS011;33060;50.178;7.570;2022-11-20T00:01:25;11.83;;;9.00;;
47329;SDS011;33060;50.178;7.570;2022-11-20T00:03:53;14.77;;;9.73;;
47329;SDS011;33060;50.178;7.570;2022-11-20T00:06:21;12.83;;;9.20;;
47329;SDS011;33060;50.178;7.570;2022-11-20T00:08:48;10.33;;;8.50;;
47329;SDS011;33060;50.178;7.570;2022-11-20T00:11:16;11.47;;;8.60;;
47329;SDS011;33060;50.178;7.570;2022-11-20T00:13:45;10.50;;;8.10;;
47329;SDS011;33060;50.178;7.570;2022-11-20T00:16:14;10.20;;;8.10;;
47329;SDS011;33060;50.178;7.570;2022-11-20T00:18:43;11.43;;;8.53;;
47329;SDS011;33060;50.178;7.570;2022-11-20T00:21:11;10.87;;;8.20;;
47329;SDS011;33060;50.178;7.570;2022-11-20T00:23:40;8.87;;;7.03;;
47329;SDS011;33060;50.178;7.570;2022-11-20T00:26:08;8.23;;;6.37;;
47329;SDS011;33060;50.178;7.570;2022-11-20T00:28:37;7.63;;;6.17;;
47329;SDS011;33060;50.178;7.570;2022-11-20T00:31:04;6.67;;;5.67;;
47329;SDS011;33060;50.178;7.570;2022-11-20T00:33:39;7.70;;;6.00;;
47329;SDS011;33060;50.178;7.570;2022-11-20T00:36:07;7.23;;;5.63;;
47329;SDS011;33060;50.178;7.570;2022-11-20T00:38:36;6.53;;;5.53;;
47329;SDS011;33060;50.178;7.570;2022-11-20T00:41:04;7.50;;;5.77;;
47329;SDS011;33060;50.178;7.570;2022-11-20T00:43:33;7.73;;;6.40;;
47329;SDS011;33060;50.178;7.570;2022-11-20T00:46:01;7.93;;;5.80;;
47329;SDS011;33060;50.178;7.570;2022-11-20T00:48:32;7.97;;;6.13;;
47329;SDS011;33060;50.178;7.570;2022-11-20T00:50:59;7.07;;;6.07;;
47329;SDS011;33060;50.178;7.570;2022-11-20T00:53:26;8.50;;;6.30;;
47329;SDS011;33060;50.178;7.570;2022-11-20T00:55:57;7.73;;;5.97;;
47329;SDS011;33060;50.178;7.570;2022-11-20T00:58:28;6.43;;;5.57;;
47329;SDS011;33060;50.178;7.570;2022-11-20T01:01:07;7.83;;;5.90;;
47329;SDS011;33060;50.178;7.570;2022-11-20T01:03:36;6.90;;;5.47;;
47329;SDS011;33060;50.178;7.570;2022-11-20T01:06:06;6.77;;;5.67;;
47329;SDS011;33060;50.178;7.570;2022-11-20T01:08:39;6.50;;;5.47;;
47329;SDS011;33060;50.178;7.570;2022-11-20T01:11:10;7.77;;;6.40;;
47329;SDS011;33060;50.178;7.570;2022-11-20T01:13:41;8.33;;;6.17;;
47329;SDS011;33060;50.178;7.570;2022-11-20T01:16:10;6.37;;;5.13;;
47329;SDS011;33060;50.178;7.570;2022-11-20T01:18:40;8.83;;;6.13;;
47329;SDS011;33060;50.178;7.570;2022-11-20T01:21:10;7.30;;;5.70;;
47329;SDS011;33060;50.178;7.570;2022-11-20T01:23:38;7.27;;;5.57;;
47329;SDS011;33060;50.178;7.570;2022-11-20T01:26:07;8.03;;;6.20;;
47329;SDS011;33060;50.178;7.570;2022-11-20T01:28:41;8.33;;;6.23;;
47329;SDS011;33060;50.178;7.570;2022-11-20T01:31:12;7.50;;;5.80;;
47329;SDS011;33060;50.178;7.570;2022-11-20T01:33:41;7.50;;;5.60;;
47329;SDS011;33060;50.178;7.570;2022-11-20T01:36:10;8.17;;;6.40;;
47329;SDS011;33060;50.178;7.570;2022-11-20T01:38:37;7.97;;;6.30;;
47329;SDS011;33060;50.178;7.570;2022-11-20T01:41:04;7.60;;;6.20;;
47329;SDS011;33060;50.178;7.570;2022-11-20T01:43:32;8.47;;;5.97;;
47329;SDS011;33060;50.178;7.570;2022-11-20T01:46:13;8.93;;;6.50;;
47329;SDS011;33060;50.178;7.570;2022-11-20T01:48:52;8.40;;;6.10;;
47329;SDS011;33060;50.178;7.570;2022-11-20T01:54:05;9.53;;;6.80;;
47329;SDS011;33060;50.178;7.570;2022-11-20T01:56:38;10.17;;;7.30;;
47329;SDS011;33060;50.178;7.570;2022-11-20T01:59:09;9.20;;;6.23;;
47329;SDS011;33060;50.178;7.570;2022-11-20T02:01:39;9.27;;;7.07;;
47329;SDS011;33060;50.178;7.570;2022-11-20T02:04:06;7.90;;;6.37;;
47329;SDS011;33060;50.178;7.570;2022-11-20T02:06:44;11.37;;;7.27;;
47329;SDS011;33060;50.178;7.570;2022-11-20T02:09:15;9.93;;;7.17;;
47329;SDS011;33060;50.178;7.570;2022-11-20T02:11:42;10.93;;;7.47;;
47329;SDS011;33060;50.178;7.570;2022-11-20T02:14:09;9.97;;;7.03;;
47329;SDS011;33060;50.178;7.570;2022-11-20T02:16:37;11.53;;;8.17;;
47329;SDS011;33060;50.178;7.570;2022-11-20T02:19:07;11.00;;;7.73;;
47329;SDS011;33060;50.178;7.570;2022-11-20T02:21:49;13.83;;;7.80;;
47329;SDS011;33060;50.178;7.570;2022-11-20T02:24:21;12.13;;;8.10;;
47329;SDS011;33060;50.178;7.570;2022-11-20T02:29:23;15.17;;;8.27;;
47329;SDS011;33060;50.178;7.570;2022-11-20T02:31:53;15.37;;;9.40;;
47329;SDS011;33060;50.178;7.570;2022-11-20T02:34:22;18.30;;;9.17;;
47329;SDS011;33060;50.178;7.570;2022-11-20T02:36:49;14.10;;;8.30;;
47329;SDS011;33060;50.178;7.570;2022-11-20T02:39:17;20.67;;;9.83;;
47329;SDS011;33060;50.178;7.570;2022-11-20T02:41:47;21.67;;;10.13;;
47329;SDS011;33060;50.178;7.570;2022-11-20T02:44:13;21.87;;;10.20;;
47329;SDS011;33060;50.178;7.570;2022-11-20T02:46:40;26.80;;;9.47;;
47329;SDS011;33060;50.178;7.570;2022-11-20T02:49:07;33.33;;;9.83;;
47329;SDS011;33060;50.178;7.570;2022-11-20T02:51:33;35.60;;;9.83;;
47329;SDS011;33060;50.178;7.570;2022-11-20T02:54:00;53.93;;;10.37;;
47329;SDS011;33060;50.178;7.570;2022-11-20T02:56:27;28.20;;;9.17;;
47329;SDS011;33060;50.178;7.570;2022-11-20T02:58:54;58.07;;;11.00;;
47329;SDS011;33060;50.178;7.570;2022-11-20T03:01:20;67.23;;;10.77;;
47329;SDS011;33060;50.178;7.570;2022-11-20T03:03:47;51.03;;;10.37;;
47329;SDS011;33060;50.178;7.570;2022-11-20T03:06:18;48.53;;;9.53;;
47329;SDS011;33060;50.178;7.570;2022-11-20T03:08:45;53.50;;;10.10;;
47329;SDS011;33060;50.178;7.570;2022-11-20T03:11:11;53.90;;;10.90;;
47329;SDS011;33060;50.178;7.570;2022-11-20T03:13:38;45.60;;;10.63;;
47329;SDS011;33060;50.178;7.570;2022-11-20T03:16:09;80.20;;;11.63;;
47329;SDS011;33060;50.178;7.570;2022-11-20T03:18:38;180.03;;;15.70;;
47329;SDS011;33060;50.178;7.570;2022-11-20T03:21:05;101.80;;;12.30;;
47329;SDS011;33060;50.178;7.570;2022-11-20T03:23:33;134.50;;;12.97;;
47329;SDS011;33060;50.178;7.570;2022-11-20T03:26:07;118.30;;;14.57;;
47329;SDS011;33060;50.178;7.570;2022-11-20T03:28:46;119.57;;;12.23;;
47329;SDS011;33060;50.178;7.570;2022-11-20T03:31:19;95.77;;;12.20;;
47329;SDS011;33060;50.178;7.570;2022-11-20T03:33:47;110.40;;;13.63;;
47329;SDS011;33060;50.178;7.570;2022-11-20T03:36:14;91.27;;;11.23;;
47329;SDS011;33060;50.178;7.570;2022-11-20T03:38:43;71.37;;;10.53;;
47329;SDS011;33060;50.178;7.570;2022-11-20T03:41:12;63.10;;;10.43;;
47329;SDS011;33060;50.178;7.570;2022-11-20T03:43:40;55.20;;;11.10;;
47329;SDS011;33060;50.178;7.570;2022-11-20T03:46:07;80.27;;;11.53;;
47329;SDS011;33060;50.178;7.570;2022-11-20T03:48:34;50.60;;;10.33;;
47329;SDS011;33060;50.178;7.570;2022-11-20T03:51:11;38.17;;;9.90;;
47329;SDS011;33060;50.178;7.570;2022-11-20T03:53:40;27.50;;;9.73;;
47329;SDS011;33060;50.178;7.570;2022-11-20T03:56:08;28.73;;;8.67;;
47329;SDS011;33060;50.178;7.570;2022-11-20T03:58:36;49.77;;;9.63;;
47329;SDS011;33060;50.178;7.570;2022-11-20T04:01:06;43.27;;;8.90;;
47329;SDS011;33060;50.178;7.570;2022-11-20T04:03:35;87.63;;;12.80;;
47329;SDS011;33060;50.178;7.570;2022-11-20T04:06:06;114.17;;;12.97;;
47329;SDS011;33060;50.178;7.570;2022-11-20T04:08:34;70.13;;;10.60;;
47329;SDS011;33060;50.178;7.570;2022-11-20T04:11:14;83.97;;;10.77;;
47329;SDS011;33060;50.178;7.570;2022-11-20T04:13:45;65.67;;;11.03;;
47329;SDS011;33060;50.178;7.570;2022-11-20T04:16:13;147.43;;;13.90;;
47329;SDS011;33060;50.178;7.570;2022-11-20T04:18:40;115.07;;;12.20;;
47329;SDS011;33060;50.178;7.570;2022-11-20T04:21:07;119.10;;;12.97;;
47329;SDS011;33060;50.178;7.570;2022-11-20T04:23:34;104.60;;;12.60;;
47329;SDS011;33060;50.178;7.570;2022-11-20T04:26:10;107.87;;;11.97;;
47329;SDS011;33060;50.178;7.570;2022-11-20T04:28:38;112.70;;;12.03;;
47329;SDS011;33060;50.178;7.570;2022-11-20T04:31:06;78.87;;;11.47;;
47329;SDS011;33060;50.178;7.570;2022-11-20T04:33:37;86.63;;;12.23;;
47329;SDS011;33060;50.178;7.570;2022-11-20T04:36:05;55.63;;;10.43;;
47329;SDS011;33060;50.178;7.570;2022-11-20T04:38:33;29.07;;;9.83;;
47329;SDS011;33060;50.178;7.570;2022-11-20T04:41:00;44.13;;;10.97;;
47329;SDS011;33060;50.178;7.570;2022-11-20T04:43:29;24.60;;;8.53;;
47329;SDS011;33060;50.178;7.570;2022-11-20T04:45:57;25.50;;;9.27;;
47329;SDS011;33060;50.178;7.570;2022-11-20T04:48:24;21.17;;;9.37;;
47329;SDS011;33060;50.178;7.570;2022-11-20T04:50:52;28.43;;;9.27;;
47329;SDS011;33060;50.178;7.570;2022-11-20T04:53:20;33.37;;;9.40;;
47329;SDS011;33060;50.178;7.570;2022-11-20T04:55:47;24.03;;;8.13;;
47329;SDS011;33060;50.178;7.570;2022-11-20T04:58:14;20.30;;;8.17;;
47329;SDS011;33060;50.178;7.570;2022-11-20T05:00:41;23.27;;;9.00;;
47329;SDS011;33060;50.178;7.570;2022-11-20T05:03:07;18.47;;;7.80;;
47329;SDS011;33060;50.178;7.570;2022-11-20T05:05:34;32.27;;;7.73;;
47329;SDS011;33060;50.178;7.570;2022-11-20T05:08:01;35.07;;;8.67;;
47329;SDS011;33060;50.178;7.570;2022-11-20T05:10:28;22.10;;;8.33;;
47329;SDS011;33060;50.178;7.570;2022-11-20T05:12:54;33.60;;;8.10;;
47329;SDS011;33060;50.178;7.570;2022-11-20T05:15:21;19.40;;;8.03;;
47329;SDS011;33060;50.178;7.570;2022-11-20T05:17:48;24.80;;;7.93;;
47329;SDS011;33060;50.178;7.570;2022-11-20T05:20:15;33.50;;;9.00;;
47329;SDS011;33060;50.178;7.570;2022-11-20T05:22:43;30.10;;;7.63;;
47329;SDS011;33060;50.178;7.570;2022-11-20T05:25:10;25.07;;;8.10;;
47329;SDS011;33060;50.178;7.570;2022-11-20T05:27:38;35.63;;;8.20;;
47329;SDS011;33060;50.178;7.570;2022-11-20T05:30:04;28.90;;;8.03;;
47329;SDS011;33060;50.178;7.570;2022-11-20T05:32:31;27.83;;;7.57;;
47329;SDS011;33060;50.178;7.570;2022-11-20T05:34:58;29.90;;;7.87;;
47329;SDS011;33060;50.178;7.570;2022-11-20T05:37:25;21.37;;;8.07;;
47329;SDS011;33060;50.178;7.570;2022-11-20T05:39:51;14.83;;;6.97;;
47329;SDS011;33060;50.178;7.570;2022-11-20T05:42:18;12.27;;;6.30;;
47329;SDS011;33060;50.178;7.570;2022-11-20T05:45:00;9.63;;;6.10;;
47329;SDS011;33060;50.178;7.570;2022-11-20T05:47:31;13.27;;;5.80;;
47329;SDS011;33060;50.178;7.570;2022-11-20T05:49:59;9.73;;;5.80;;
47329;SDS011;33060;50.178;7.570;2022-11-20T05:52:28;8.43;;;5.70;;
47329;SDS011;33060;50.178;7.570;2022-11-20T05:54:55;11.87;;;5.30;;
47329;SDS011;33060;50.178;7.570;2022-11-20T05:57:22;8.43;;;5.70;;
47329;SDS011;33060;50.178;7.570;2022-11-20T05:59:49;8.90;;;5.57;;
47329;SDS011;33060;50.178;7.570;2022-11-20T06:02:15;8.13;;;5.80;;
47329;SDS011;33060;50.178;7.570;2022-11-20T06:04:42;8.30;;;5.33;;
47329;SDS011;33060;50.178;7.570;2022-11-20T06:07:09;7.80;;;5.20;;
47329;SDS011;33060;50.178;7.570;2022-11-20T06:09:36;8.23;;;5.63;;
47329;SDS011;33060;50.178;7.570;2022-11-20T06:12:03;7.70;;;5.30;;
47329;SDS011;33060;50.178;7.570;2022-11-20T06:14:30;8.33;;;5.47;;
47329;SDS011;33060;50.178;7.570;2022-11-20T06:16:56;8.73;;;5.63;;
47329;SDS011;33060;50.178;7.570;2022-11-20T06:19:23;9.13;;;5.77;;
47329;SDS011;33060;50.178;7.570;2022-11-20T06:21:50;9.40;;;5.80;;
47329;SDS011;33060;50.178;7.570;2022-11-20T06:24:17;8.80;;;6.13;;
47329;SDS011;33060;50.178;7.570;2022-11-20T06:26:44;8.13;;;5.80;;
47329;SDS011;33060;50.178;7.570;2022-11-20T06:29:10;11.17;;;6.03;;
47329;SDS011;33060;50.178;7.570;2022-11-20T06:31:37;10.63;;;5.60;;
47329;SDS011;33060;50.178;7.570;2022-11-20T06:34:04;11.20;;;5.97;;
47329;SDS011;33060;50.178;7.570;2022-11-20T06:36:32;9.43;;;5.73;;
47329;SDS011;33060;50.178;7.570;2022-11-20T06:38:59;11.70;;;6.73;;
47329;SDS011;33060;50.178;7.570;2022-11-20T06:41:27;9.23;;;5.83;;
47329;SDS011;33060;50.178;7.570;2022-11-20T06:43:54;9.17;;;6.47;;
47329;SDS011;33060;50.178;7.570;2022-11-20T06:46:21;10.40;;;5.70;;
47329;SDS011;33060;50.178;7.570;2022-11-20T06:48:48;8.70;;;5.47;;
47329;SDS011;33060;50.178;7.570;2022-11-20T06:51:15;9.47;;;5.43;;
47329;SDS011;33060;50.178;7.570;2022-11-20T06:53:43;10.53;;;5.83;;
47329;SDS011;33060;50.178;7.570;2022-11-20T06:56:09;9.73;;;6.00;;
47329;SDS011;33060;50.178;7.570;2022-11-20T06:58:36;8.50;;;5.77;;
47329;SDS011;33060;50.178;7.570;2022-11-20T07:01:07;10.07;;;6.33;;
47329;SDS011;33060;50.178;7.570;2022-11-20T07:03:36;11.33;;;6.17;;
47329;SDS011;33060;50.178;7.570;2022-11-20T07:06:03;12.70;;;7.10;;
47329;SDS011;33060;50.178;7.570;2022-11-20T07:08:31;12.50;;;5.90;;
47329;SDS011;33060;50.178;7.570;2022-11-20T07:10:58;12.60;;;5.80;;
47329;SDS011;33060;50.178;7.570;2022-11-20T07:13:29;14.00;;;5.90;;
47329;SDS011;33060;50.178;7.570;2022-11-20T07:16:03;12.80;;;6.43;;
47329;SDS011;33060;50.178;7.570;2022-11-20T07:18:32;13.37;;;7.90;;
47329;SDS011;33060;50.178;7.570;2022-11-20T07:21:00;10.97;;;5.77;;
47329;SDS011;33060;50.178;7.570;2022-11-20T07:23:30;13.80;;;5.80;;
47329;SDS011;33060;50.178;7.570;2022-11-20T07:25:56;14.93;;;5.67;;
47329;SDS011;33060;50.178;7.570;2022-11-20T07:28:23;13.43;;;6.07;;
47329;SDS011;33060;50.178;7.570;2022-11-20T07:30:51;13.80;;;6.00;;
47329;SDS011;33060;50.178;7.570;2022-11-20T07:33:19;16.23;;;6.93;;
47329;SDS011;33060;50.178;7.570;2022-11-20T07:35:46;79.53;;;11.77;;
47329;SDS011;33060;50.178;7.570;2022-11-20T07:38:13;104.00;;;18.60;;
47329;SDS011;33060;50.178;7.570;2022-11-20T07:40:39;112.63;;;19.87;;
47329;SDS011;33060;50.178;7.570;2022-11-20T07:43:06;142.67;;;17.77;;
47329;SDS011;33060;50.178;7.570;2022-11-20T07:45:33;144.67;;;15.40;;
47329;SDS011;33060;50.178;7.570;2022-11-20T07:47:59;82.33;;;11.30;;
47329;SDS011;33060;50.178;7.570;2022-11-20T07:50:26;108.50;;;11.63;;
47329;SDS011;33060;50.178;7.570;2022-11-20T07:52:59;63.10;;;12.17;;
47329;SDS011;33060;50.178;7.570;2022-11-20T07:55:27;71.17;;;10.23;;
47329;SDS011;33060;50.178;7.570;2022-11-20T07:57:54;73.17;;;11.00;;
47329;SDS011;33060;50.178;7.570;2022-11-20T08:00:22;54.43;;;7.90;;
47329;SDS011;33060;50.178;7.570;2022-11-20T08:02:49;90.73;;;9.80;;
47329;SDS011;33060;50.178;7.570;2022-11-20T08:05:16;85.43;;;11.70;;
47329;SDS011;33060;50.178;7.570;2022-11-20T08:07:43;119.83;;;11.80;;
47329;SDS011;33060;50.178;7.570;2022-11-20T08:10:11;91.70;;;11.93;;
47329;SDS011;33060;50.178;7.570;2022-11-20T08:12:46;84.17;;;10.37;;
47329;SDS011;33060;50.178;7.570;2022-11-20T08:15:32;80.87;;;10.23;;
47329;SDS011;33060;50.178;7.570;2022-11-20T08:18:03;42.33;;;7.87;;
47329;SDS011;33060;50.178;7.570;2022-11-20T08:20:51;44.67;;;7.40;;
47329;SDS011;33060;50.178;7.570;2022-11-20T08:23:17;40.53;;;9.77;;
47329;SDS011;33060;50.178;7.570;2022-11-20T08:25:48;51.27;;;8.07;;
47329;SDS011;33060;50.178;7.570;2022-11-20T08:28:16;30.63;;;9.37;;
47329;SDS011;33060;50.178;7.570;2022-11-20T08:30:47;70.77;;;10.40;;
47329;SDS011;33060;50.178;7.570;2022-11-20T08:33:14;27.63;;;9.30;;
47329;SDS011;33060;50.178;7.570;2022-11-20T08:35:40;67.90;;;9.43;;
47329;SDS011;33060;50.178;7.570;2022-11-20T08:38:08;18.37;;;8.20;;
47329;SDS011;33060;50.178;7.570;2022-11-20T08:40:35;18.53;;;7.50;;
47329;SDS011;33060;50.178;7.570;2022-11-20T08:43:02;25.20;;;9.43;;
47329;SDS011;33060;50.178;7.570;2022-11-20T08:45:29;29.43;;;9.67;;
47329;SDS011;33060;50.178;7.570;2022-11-20T08:48:00;33.47;;;10.77;;
47329;SDS011;33060;50.178;7.570;2022-11-20T08:50:28;20.73;;;9.37;;
47329;SDS011;33060;50.178;7.570;2022-11-20T08:53:02;13.00;;;7.97;;
47329;SDS011;33060;50.178;7.570;2022-11-20T08:55:31;13.43;;;9.07;;
47329;SDS011;33060;50.178;7.570;2022-11-20T08:58:02;15.50;;;9.60;;
47329;SDS011;33060;50.178;7.570;2022-11-20T09:00:30;13.57;;;9.23;;
47329;SDS011;33060;50.178;7.570;2022-11-20T09:02:56;12.23;;;7.97;;
47329;SDS011;33060;50.178;7.570;2022-11-20T09:05:24;12.17;;;8.23;;
47329;SDS011;33060;50.178;7.570;2022-11-20T09:07:51;12.60;;;9.20;;
47329;SDS011;33060;50.178;7.570;2022-11-20T09:10:17;11.90;;;8.53;;
47329;SDS011;33060;50.178;7.570;2022-11-20T09:12:50;15.33;;;10.43;;
47329;SDS011;33060;50.178;7.570;2022-11-20T09:15:18;12.83;;;8.47;;
47329;SDS011;33060;50.178;7.570;2022-11-20T09:17:51;12.97;;;8.23;;
47329;SDS011;33060;50.178;7.570;2022-11-20T09:20:22;13.60;;;9.57;;
47329;SDS011;33060;50.178;7.570;2022-11-20T09:22:48;14.53;;;11.13;;
47329;SDS011;33060;50.178;7.570;2022-11-20T09:25:15;13.10;;;8.77;;
47329;SDS011;33060;50.178;7.570;2022-11-20T09:27:42;15.70;;;11.47;;
47329;SDS011;33060;50.178;7.570;2022-11-20T09:30:10;17.03;;;13.40;;
47329;SDS011;33060;50.178;7.570;2022-11-20T09:32:41;12.57;;;9.13;;
47329;SDS011;33060;50.178;7.570;2022-11-20T09:35:08;11.73;;;8.30;;
47329;SDS011;33060;50.178;7.570;2022-11-20T09:37:36;9.10;;;6.97;;
47329;SDS011;33060;50.178;7.570;2022-11-20T09:40:03;10.70;;;8.87;;
47329;SDS011;33060;50.178;7.570;2022-11-20T09:42:41;8.20;;;6.10;;
47329;SDS011;33060;50.178;7.570;2022-11-20T09:45:33;10.33;;;7.13;;
47329;SDS011;33060;50.178;7.570;2022-11-20T09:48:11;9.97;;;6.73;;
47329;SDS011;33060;50.178;7.570;2022-11-20T09:55:51;9.07;;;7.33;;
47329;SDS011;33060;50.178;7.570;2022-11-20T09:58:22;11.93;;;8.73;;
47329;SDS011;33060;50.178;7.570;2022-11-20T10:00:56;9.93;;;7.60;;
47329;SDS011;33060;50.178;7.570;2022-11-20T10:03:39;10.17;;;7.90;;
47329;SDS011;33060;50.178;7.570;2022-11-20T10:06:13;9.40;;;7.67;;
47329;SDS011;33060;50.178;7.570;2022-11-20T10:17:02;9.70;;;7.67;;
47329;SDS011;33060;50.178;7.570;2022-11-20T10:22:42;10.00;;;7.30;;
47329;SDS011;33060;50.178;7.570;2022-11-20T10:25:15;10.90;;;9.13;;
47329;SDS011;33060;50.178;7.570;2022-11-20T10:30:42;7.13;;;6.43;;
47329;SDS011;33060;50.178;7.570;2022-11-20T10:33:54;8.67;;;6.90;;
47329;SDS011;33060;50.178;7.570;2022-11-20T10:36:33;9.73;;;7.67;;
47329;SDS011;33060;50.178;7.570;2022-11-20T10:41:43;8.47;;;7.03;;
47329;SDS011;33060;50.178;7.570;2022-11-20T10:44:16;8.13;;;6.80;;
47329;SDS011;33060;50.178;7.570;2022-11-20T10:47:08;8.80;;;6.70;;
47329;SDS011;33060;50.178;7.570;2022-11-20T10:49:40;9.30;;;7.40;;
47329;SDS011;33060;50.178;7.570;2022-11-20T10:54:59;11.00;;;8.30;;
47329;SDS011;33060;50.178;7.570;2022-11-20T11:00:31;14.17;;;10.37;;
47329;SDS011;33060;50.178;7.570;2022-11-20T11:02:58;10.97;;;9.10;;
47329;SDS011;33060;50.178;7.570;2022-11-20T11:08:03;12.03;;;9.47;;
47329;SDS011;33060;50.178;7.570;2022-11-20T11:10:46;11.13;;;8.70;;
47329;SDS011;33060;50.178;7.570;2022-11-20T11:15:52;11.97;;;9.17;;
47329;SDS011;33060;50.178;7.570;2022-11-20T11:18:23;10.43;;;8.13;;
47329;SDS011;33060;50.178;7.570;2022-11-20T11:20:59;12.10;;;9.47;;
47329;SDS011;33060;50.178;7.570;2022-11-20T11:25:59;12.17;;;9.30;;
47329;SDS011;33060;50.178;7.570;2022-11-20T11:28:28;13.43;;;9.67;;
47329;SDS011;33060;50.178;7.570;2022-11-20T11:30:55;10.93;;;8.17;;
47329;SDS011;33060;50.178;7.570;2022-11-20T11:33:26;11.70;;;9.03;;
47329;SDS011;33060;50.178;7.570;2022-11-20T11:35:55;13.40;;;9.50;;
47329;SDS011;33060;50.178;7.570;2022-11-20T11:38:30;14.67;;;11.90;;
47329;SDS011;33060;50.178;7.570;2022-11-20T11:41:02;13.23;;;10.17;;
47329;SDS011;33060;50.178;7.570;2022-11-20T11:43:32;14.97;;;9.47;;
47329;SDS011;33060;50.178;7.570;2022-11-20T11:48:59;12.87;;;9.97;;
47329;SDS011;33060;50.178;7.570;2022-11-20T11:51:30;13.20;;;10.03;;
47329;SDS011;33060;50.178;7.570;2022-11-20T11:54:11;13.93;;;10.00;;
47329;SDS011;33060;50.178;7.570;2022-11-20T11:56:44;15.83;;;10.37;;
47329;SDS011;33060;50.178;7.570;2022-11-20T11:59:12;13.67;;;10.20;;
47329;SDS011;33060;50.178;7.570;2022-11-20T12:01:55;15.50;;;10.37;;
47329;SDS011;33060;50.178;7.570;2022-11-20T12:04:40;14.53;;;11.10;;
47329;SDS011;33060;50.178;7.570;2022-11-20T12:07:15;17.37;;;11.13;;
47329;SDS011;33060;50.178;7.570;2022-11-20T12:15:59;14.33;;;10.20;;
47329;SDS011;33060;50.178;7.570;2022-11-20T12:18:27;12.43;;;9.07;;
47329;SDS011;33060;50.178;7.570;2022-11-20T12:20:58;11.60;;;8.13;;
47329;SDS011;33060;50.178;7.570;2022-11-20T12:29:47;9.93;;;7.30;;
47329;SDS011;33060;50.178;7.570;2022-11-20T12:40:24;8.13;;;6.30;;
47329;SDS011;33060;50.178;7.570;2022-11-20T12:54:31;6.00;;;4.27;;
47329;SDS011;33060;50.178;7.570;2022-11-20T13:05:31;4.80;;;3.60;;
47329;SDS011;33060;50.178;7.570;2022-11-20T13:08:08;6.13;;;3.50;;
47329;SDS011;33060;50.178;7.570;2022-11-20T13:19:14;3.73;;;3.17;;
47329;SDS011;33060;50.178;7.570;2022-11-20T13:21:53;7.73;;;3.40;;
47329;SDS011;33060;50.178;7.570;2022-11-20T13:26:46;4.27;;;3.03;;
47329;SDS011;33060;50.178;7.570;2022-11-20T13:29:17;4.33;;;2.60;;
47329;SDS011;33060;50.178;7.570;2022-11-20T13:31:45;4.33;;;2.80;;
47329;SDS011;33060;50.178;7.570;2022-11-20T13:34:22;6.43;;;3.63;;
47329;SDS011;33060;50.178;7.570;2022-11-20T13:36:53;5.90;;;2.97;;
47329;SDS011;33060;50.178;7.570;2022-11-20T13:39:28;5.60;;;2.47;;
47329;SDS011;33060;50.178;7.570;2022-11-20T13:41:58;6.10;;;2.40;;
47329;SDS011;33060;50.178;7.570;2022-11-20T13:44:29;4.93;;;2.57;;
47329;SDS011;33060;50.178;7.570;2022-11-20T13:47:04;4.87;;;2.57;;
47329;SDS011;33060;50.178;7.570;2022-11-20T13:49:47;4.73;;;2.20;;
47329;SDS011;33060;50.178;7.570;2022-11-20T13:52:29;4.07;;;2.57;;
47329;SDS011;33060;50.178;7.570;2022-11-20T13:55:35;4.77;;;2.60;;
47329;SDS011;33060;50.178;7.570;2022-11-20T13:58:24;5.57;;;2.87;;
47329;SDS011;33060;50.178;7.570;2022-11-20T14:01:08;4.43;;;2.30;;
47329;SDS011;33060;50.178;7.570;2022-11-20T14:03:37;6.90;;;2.60;;
47329;SDS011;33060;50.178;7.570;2022-11-20T14:08:54;5.13;;;2.93;;
47329;SDS011;33060;50.178;7.570;2022-11-20T14:11:23;4.80;;;2.97;;
47329;SDS011;33060;50.178;7.570;2022-11-20T14:14:00;5.37;;;2.67;;
47329;SDS011;33060;50.178;7.570;2022-11-20T14:16:33;6.80;;;3.60;;
47329;SDS011;33060;50.178;7.570;2022-11-20T14:22:07;5.53;;;2.30;;
47329;SDS011;33060;50.178;7.570;2022-11-20T14:24:44;5.17;;;3.87;;
47329;SDS011;33060;50.178;7.570;2022-11-20T14:27:14;3.67;;;2.77;;
47329;SDS011;33060;50.178;7.570;2022-11-20T14:29:47;7.40;;;2.40;;
47329;SDS011;33060;50.178;7.570;2022-11-20T14:32:19;5.13;;;2.20;;
47329;SDS011;33060;50.178;7.570;2022-11-20T14:34:48;5.67;;;3.03;;
47329;SDS011;33060;50.178;7.570;2022-11-20T14:37:18;6.70;;;3.17;;
47329;SDS011;33060;50.178;7.570;2022-11-20T14:39:51;6.10;;;3.10;;
47329;SDS011;33060;50.178;7.570;2022-11-20T14:44:56;6.17;;;3.80;;
47329;SDS011;33060;50.178;7.570;2022-11-20T14:47:25;4.20;;;3.10;;
47329;SDS011;33060;50.178;7.570;2022-11-20T14:49:55;5.37;;;3.67;;
47329;SDS011;33060;50.178;7.570;2022-11-20T14:52:25;5.57;;;4.00;;
47329;SDS011;33060;50.178;7.570;2022-11-20T14:54:53;6.07;;;4.00;;
47329;SDS011;33060;50.178;7.570;2022-11-20T14:57:31;7.90;;;3.73;;
47329;SDS011;33060;50.178;7.570;2022-11-20T15:02:42;5.27;;;3.10;;
47329;SDS011;33060;50.178;7.570;2022-11-20T15:05:14;4.87;;;3.17;;
47329;SDS011;33060;50.178;7.570;2022-11-20T15:07:42;5.07;;;3.10;;
47329;SDS011;33060;50.178;7.570;2022-11-20T15:10:27;5.30;;;3.10;;
47329;SDS011;33060;50.178;7.570;2022-11-20T15:13:01;5.27;;;2.40;;
47329;SDS011;33060;50.178;7.570;2022-11-20T15:18:18;4.23;;;2.33;;
47329;SDS011;33060;50.178;7.570;2022-11-20T15:20:47;5.80;;;3.13;;
47329;SDS011;33060;50.178;7.570;2022-11-20T15:23:15;6.60;;;3.70;;
47329;SDS011;33060;50.178;7.570;2022-11-20T15:25:47;6.03;;;3.30;;
47329;SDS011;33060;50.178;7.570;2022-11-20T15:30:53;5.30;;;3.70;;
47329;SDS011;33060;50.178;7.570;2022-11-20T15:33:19;6.00;;;3.23;;
47329;SDS011;33060;50.178;7.570;2022-11-20T15:35:46;5.97;;;2.37;;
47329;SDS011;33060;50.178;7.570;2022-11-20T15:38:13;3.97;;;2.40;;
47329;SDS011;33060;50.178;7.570;2022-11-20T15:40:39;4.43;;;2.13;;
47329;SDS011;33060;50.178;7.570;2022-11-20T15:43:07;8.70;;;2.63;;
47329;SDS011;33060;50.178;7.570;2022-11-20T15:45:43;5.63;;;2.83;;
47329;SDS011;33060;50.178;7.570;2022-11-20T15:53:17;4.23;;;2.20;;
47329;SDS011;33060;50.178;7.570;2022-11-20T15:55:44;4.77;;;2.60;;
47329;SDS011;33060;50.178;7.570;2022-11-20T15:58:11;3.97;;;2.20;;
47329;SDS011;33060;50.178;7.570;2022-11-20T16:00:37;4.50;;;2.40;;
47329;SDS011;33060;50.178;7.570;2022-11-20T16:03:04;7.70;;;4.40;;
47329;SDS011;33060;50.178;7.570;2022-11-20T16:05:31;7.03;;;3.03;;
47329;SDS011;33060;50.178;7.570;2022-11-20T16:07:58;5.43;;;3.10;;
47329;SDS011;33060;50.178;7.570;2022-11-20T16:10:24;7.73;;;3.30;;
47329;SDS011;33060;50.178;7.570;2022-11-20T16:12:51;4.03;;;2.00;;
47329;SDS011;33060;50.178;7.570;2022-11-20T16:15:36;4.87;;;2.77;;
47329;SDS011;33060;50.178;7.570;2022-11-20T16:18:13;4.43;;;3.10;;
47329;SDS011;33060;50.178;7.570;2022-11-20T16:20:41;4.17;;;3.20;;
47329;SDS011;33060;50.178;7.570;2022-11-20T16:23:08;3.63;;;2.53;;
47329;SDS011;33060;50.178;7.570;2022-11-20T16:25:35;9.90;;;7.57;;
47329;SDS011;33060;50.178;7.570;2022-11-20T16:28:02;7.43;;;6.53;;
47329;SDS011;33060;50.178;7.570;2022-11-20T16:30:28;7.13;;;4.87;;
47329;SDS011;33060;50.178;7.570;2022-11-20T16:32:55;5.83;;;2.57;;
47329;SDS011;33060;50.178;7.570;2022-11-20T16:35:22;4.63;;;1.73;;
47329;SDS011;33060;50.178;7.570;2022-11-20T16:37:48;5.90;;;2.10;;
47329;SDS011;33060;50.178;7.570;2022-11-20T16:40:15;5.60;;;2.97;;
47329;SDS011;33060;50.178;7.570;2022-11-20T16:42:42;4.43;;;2.77;;
47329;SDS011;33060;50.178;7.570;2022-11-20T16:45:08;4.10;;;3.20;;
47329;SDS011;33060;50.178;7.570;2022-11-20T16:47:35;4.10;;;3.70;;
47329;SDS011;33060;50.178;7.570;2022-11-20T16:50:03;4.37;;;3.80;;
47329;SDS011;33060;50.178;7.570;2022-11-20T16:52:31;5.60;;;3.70;;